Time;durP1;ratioP1;P1;durP2;ratioP2;P2;SDS_P1;SDS_P2;PMS_P1;PMS_P2;Temp;Humidity;BMP_temperature;BMP_pressure;BME280_temperature;BME280_humidity;BME280_pressure;Samples;Min_cycle;Max_cycle;Signal;HPM_P1;HPM_P2
2024/01/19 00:01:20;;;;;;;26.83;18.20;;;-0.60;99.90;;;;;;5116120;28;20227;-42
2024/01/19 00:03:46;;;;;;;26.17;16.80;;;-0.60;99.90;;;;;;5114125;28;20280;-41
2024/01/19 00:06:12;;;;;;;26.83;17.50;;;-0.60;1.00;;;;;;5114945;28;20544;-41
2024/01/19 00:08:37;;;;;;;27.90;18.03;;;-0.60;1.00;;;;;;5099004;28;20406;-41
2024/01/19 00:11:05;;;;;;;26.50;19.07;;;-0.60;1.00;;;;;;5117875;28;20534;-44
2024/01/19 00:13:31;;;;;;;23.83;16.87;;;-0.50;1.00;;;;;;5118103;28;20175;-42
2024/01/19 00:15:56;;;;;;;28.07;17.30;;;-0.50;1.00;;;;;;5083134;28;20528;-42
2024/01/19 00:18:23;;;;;;;25.00;16.60;;;-0.50;1.00;;;;;;5099830;28;20897;-42
2024/01/19 00:20:49;;;;;;;23.20;17.90;;;-0.60;1.00;;;;;;5118516;28;20208;-43
2024/01/19 00:23:14;;;;;;;24.63;17.37;;;-0.60;1.00;;;;;;5113789;28;20461;-42
2024/01/19 00:25:40;;;;;;;25.87;17.40;;;-0.50;1.00;;;;;;5114555;28;20437;-42
2024/01/19 00:28:06;;;;;;;29.40;19.67;;;-0.50;1.00;;;;;;5116887;28;20550;-41
2024/01/19 00:30:32;;;;;;;28.80;18.40;;;-0.50;1.00;;;;;;5118035;28;20585;-43
2024/01/19 00:32:57;;;;;;;24.07;18.50;;;-0.50;99.90;;;;;;5118265;28;20620;-42
2024/01/19 00:35:23;;;;;;;15.33;10.10;;;-0.50;99.90;;;;;;5117378;28;20172;-47
2024/01/19 00:37:48;;;;;;;33.07;18.23;;;1.10;1.00;;;;;;5116795;28;20234;-46
2024/01/19 00:40:14;;;;;;;49.57;27.83;;;4.00;1.00;;;;;;5117198;28;20329;-45
2024/01/19 00:42:41;;;;;;;39.83;27.53;;;5.80;1.00;;;;;;5115373;28;20624;-46
2024/01/19 00:45:08;;;;;;;33.97;24.47;;;6.50;1.50;;;;;;5114637;28;20437;-43
2024/01/19 00:47:34;;;;;;;22.77;18.50;;;7.10;3.30;;;;;;5117363;28;20787;-46
2024/01/19 00:50:01;;;;;;;22.07;16.97;;;7.60;4.80;;;;;;5116024;28;20429;-46
2024/01/19 00:52:26;;;;;;;20.27;16.43;;;7.90;5.50;;;;;;5115145;28;20436;-43
2024/01/19 00:54:52;;;;;;;21.23;16.50;;;8.00;1.00;;;;;;5114283;28;20722;-41
2024/01/19 00:57:17;;;;;;;18.63;16.10;;;7.20;99.90;;;;;;5116161;28;20198;-42
2024/01/19 00:59:43;;;;;;;17.67;14.80;;;6.30;1.00;;;;;;5116617;28;20465;-44
2024/01/19 01:02:08;;;;;;;19.80;16.07;;;5.40;1.00;;;;;;5097209;28;20187;-43
2024/01/19 01:04:34;;;;;;;16.37;14.30;;;4.40;1.00;;;;;;5112907;28;20274;-43
2024/01/19 01:07:00;;;;;;;17.83;14.93;;;3.50;99.90;;;;;;5113075;28;20457;-43
2024/01/19 01:09:25;;;;;;;19.90;15.13;;;2.90;99.90;;;;;;5115844;28;20181;-42
2024/01/19 01:11:51;;;;;;;22.33;15.33;;;2.40;99.90;;;;;;5098667;28;20182;-42
2024/01/19 01:14:16;;;;;;;20.30;15.70;;;2.00;1.00;;;;;;5117659;28;20215;-43
2024/01/19 01:16:42;;;;;;;22.60;16.17;;;1.70;1.00;;;;;;5117773;28;20175;-43
2024/01/19 01:19:08;;;;;;;23.83;16.87;;;1.50;99.90;;;;;;5081133;28;20179;-44
2024/01/19 01:21:33;;;;;;;29.73;18.17;;;1.30;1.00;;;;;;5097697;28;20199;-42
2024/01/19 01:23:59;;;;;;;25.20;16.73;;;1.10;1.00;;;;;;5113993;28;20529;-42
2024/01/19 01:26:25;;;;;;;24.27;16.60;;;1.00;1.00;;;;;;5097435;28;20524;-42
2024/01/19 01:28:51;;;;;;;22.77;15.77;;;0.80;99.90;;;;;;5117700;28;20527;-42
2024/01/19 01:31:16;;;;;;;25.83;18.30;;;0.80;99.90;;;;;;5116084;28;20271;-43
2024/01/19 01:33:42;;;;;;;27.43;16.80;;;0.70;99.90;;;;;;5116029;28;20245;-44
2024/01/19 01:36:07;;;;;;;23.07;18.90;;;0.60;1.00;;;;;;5119039;28;20288;-42
2024/01/19 01:38:33;;;;;;;25.03;18.37;;;0.50;1.00;;;;;;5102501;28;20183;-41
2024/01/19 01:40:58;;;;;;;28.93;17.77;;;0.30;1.00;;;;;;5100587;28;20520;-44
2024/01/19 01:43:24;;;;;;;26.57;18.07;;;0.30;1.00;;;;;;5119256;28;20520;-41
2024/01/19 01:45:51;;;;;;;28.73;18.13;;;0.30;1.00;;;;;;5100458;28;20195;-45
2024/01/19 01:48:18;;;;;;;23.83;18.43;;;0.20;1.00;;;;;;5100693;28;20421;-44
2024/01/19 01:50:43;;;;;;;20.70;16.00;;;0.20;1.00;;;;;;5119776;28;20474;-44
2024/01/19 01:53:09;;;;;;;22.60;16.77;;;0.10;1.00;;;;;;5119991;28;20433;-42
2024/01/19 01:55:35;;;;;;;28.47;22.27;;;0.10;1.00;;;;;;5100936;28;20255;-43
2024/01/19 01:58:01;;;;;;;24.13;17.10;;;0.10;45.90;;;;;;5117653;28;20175;-45
2024/01/19 02:00:29;;;;;;;24.27;18.53;;;0.10;35.30;;;;;;5120503;28;20178;-41
2024/01/19 02:02:56;;;;;;;23.83;17.93;;;0.00;50.30;;;;;;5101292;28;20563;-43
2024/01/19 02:05:22;;;;;;;25.80;18.60;;;0.10;70.50;;;;;;5119388;28;20463;-44
2024/01/19 02:07:47;;;;;;;26.50;18.63;;;0.00;89.70;;;;;;5119168;28;20425;-41
2024/01/19 02:10:13;;;;;;;30.10;17.83;;;0.00;88.40;;;;;;5101430;28;20191;-45
2024/01/19 02:12:39;;;;;;;24.53;17.33;;;0.00;94.00;;;;;;5119537;28;20610;-44
2024/01/19 02:15:05;;;;;;;28.80;17.97;;;0.00;73.90;;;;;;5119452;27;20176;-44
2024/01/19 02:17:30;;;;;;;22.37;17.20;;;0.00;45.20;;;;;;5119122;28;20436;-43
2024/01/19 02:19:56;;;;;;;28.93;19.33;;;0.00;46.40;;;;;;5119251;28;20447;-43
2024/01/19 02:22:21;;;;;;;28.00;18.10;;;-0.10;37.80;;;;;;5118709;28;20176;-41
2024/01/19 02:24:47;;;;;;;26.17;17.60;;;-0.10;53.10;;;;;;5118829;28;20501;-41
2024/01/19 02:27:13;;;;;;;29.60;18.87;;;-0.10;56.40;;;;;;5101276;28;20179;-44
2024/01/19 02:29:38;;;;;;;25.60;19.10;;;-0.10;82.40;;;;;;5101390;28;20184;-44
2024/01/19 02:32:04;;;;;;;24.83;17.50;;;-0.20;98.30;;;;;;5120448;28;20239;-41
2024/01/19 02:34:29;;;;;;;26.50;20.10;;;-0.10;99.90;;;;;;5120655;28;20187;-41
2024/01/19 02:36:55;;;;;;;29.20;19.40;;;-0.20;99.90;;;;;;5120194;28;20292;-43
2024/01/19 02:39:20;;;;;;;24.53;18.13;;;-0.20;99.90;;;;;;5119884;28;20209;-43
2024/01/19 02:41:46;;;;;;;28.43;19.63;;;-0.20;99.90;;;;;;5120067;28;20236;-44
2024/01/19 02:44:12;;;;;;;29.87;20.97;;;-0.20;99.90;;;;;;5119423;28;20235;-41
2024/01/19 02:46:38;;;;;;;21.63;16.67;;;-0.10;99.90;;;;;;5118016;28;20186;-41
2024/01/19 02:49:04;;;;;;;27.20;18.20;;;-0.10;99.90;;;;;;5119105;28;20532;-41
2024/01/19 02:51:30;;;;;;;25.97;19.70;;;-0.10;99.90;;;;;;5101269;28;20512;-42
2024/01/19 02:53:55;;;;;;;26.63;19.70;;;-0.10;99.90;;;;;;5118943;28;20434;-41
2024/01/19 02:56:21;;;;;;;22.93;18.10;;;-0.10;99.90;;;;;;5118855;28;20618;-42
2024/01/19 02:58:47;;;;;;;32.10;19.63;;;-0.10;99.90;;;;;;5118904;28;20187;-44
2024/01/19 03:01:12;;;;;;;31.03;19.10;;;-0.10;99.90;;;;;;5118377;28;20445;-43
2024/01/19 03:03:38;;;;;;;24.03;18.53;;;-0.10;99.90;;;;;;5119273;28;20434;-43
2024/01/19 03:06:03;;;;;;;30.00;21.00;;;-0.10;99.90;;;;;;5119763;28;20433;-41
2024/01/19 03:08:30;;;;;;;30.00;20.43;;;-0.10;99.90;;;;;;5115094;28;20190;-42
2024/01/19 03:10:59;;;;;;;28.23;18.40;;;-0.10;99.90;;;;;;5118871;28;20187;-42
2024/01/19 03:13:24;;;;;;;27.23;19.70;;;-0.10;99.90;;;;;;5119280;28;20456;-43
2024/01/19 03:15:50;;;;;;;25.00;18.83;;;-0.20;99.90;;;;;;5099910;28;20422;-39
2024/01/19 03:18:16;;;;;;;23.20;18.47;;;-0.20;99.90;;;;;;5117959;28;20637;-42
2024/01/19 03:20:41;;;;;;;29.20;19.33;;;-0.20;93.30;;;;;;5117856;28;20263;-42
2024/01/19 03:23:08;;;;;;;25.73;17.43;;;-0.30;56.90;;;;;;5117337;28;20468;-44
2024/01/19 03:25:33;;;;;;;26.67;19.30;;;-0.30;42.70;;;;;;5117893;28;20179;-41
2024/01/19 03:27:59;;;;;;;24.67;17.60;;;-0.40;38.20;;;;;;5117165;28;20542;-41
2024/01/19 03:30:24;;;;;;;30.07;18.60;;;-0.50;29.00;;;;;;5117691;28;20233;-44
2024/01/19 03:32:50;;;;;;;23.40;17.30;;;-0.50;35.00;;;;;;5083110;28;20243;-44
2024/01/19 03:35:17;;;;;;;22.47;17.70;;;-0.60;52.40;;;;;;5098882;28;20234;-44
2024/01/19 03:37:43;;;;;;;24.63;16.90;;;-0.70;77.90;;;;;;5099471;28;20260;-44
2024/01/19 03:40:09;;;;;;;26.40;18.90;;;-0.70;62.40;;;;;;5117883;28;20434;-42
2024/01/19 03:42:35;;;;;;;25.60;17.03;;;-0.80;55.00;;;;;;5118880;28;20183;-43
2024/01/19 03:45:03;;;;;;;25.33;19.57;;;-0.90;95.50;;;;;;5099125;28;20425;-40
2024/01/19 03:47:29;;;;;;;26.50;18.90;;;-0.90;99.90;;;;;;5115959;28;20184;-42
2024/01/19 03:49:54;;;;;;;28.00;17.80;;;-0.90;99.90;;;;;;5115578;28;20432;-41
2024/01/19 03:52:20;;;;;;;25.60;18.00;;;-0.90;99.90;;;;;;5115850;28;20237;-43
2024/01/19 03:54:46;;;;;;;25.37;18.63;;;-0.90;99.90;;;;;;5115586;28;20184;-43
2024/01/19 03:57:11;;;;;;;27.67;19.30;;;-0.90;99.90;;;;;;5116110;28;20255;-41
2024/01/19 03:59:37;;;;;;;28.87;19.83;;;-1.00;99.90;;;;;;5097607;28;20591;-43
2024/01/19 04:02:04;;;;;;;29.40;18.80;;;-0.90;99.90;;;;;;5116028;28;20271;-45
2024/01/19 04:04:30;;;;;;;28.17;19.63;;;-0.90;99.20;;;;;;5117077;28;20195;-44
2024/01/19 04:06:55;;;;;;;27.87;19.00;;;-0.90;99.90;;;;;;5116205;28;20896;-42
2024/01/19 04:09:21;;;;;;;27.43;19.00;;;-0.90;99.90;;;;;;5097031;28;20178;-42
2024/01/19 04:11:47;;;;;;;28.23;19.47;;;-0.90;99.90;;;;;;5114647;28;20195;-42
2024/01/19 04:14:12;;;;;;;29.23;19.37;;;-0.90;99.90;;;;;;5115084;28;20902;-45
2024/01/19 04:16:38;;;;;;;24.93;18.83;;;-0.90;99.90;;;;;;5116672;28;20171;-41
2024/01/19 04:19:04;;;;;;;28.03;19.70;;;-0.90;99.90;;;;;;5098145;28;20183;-43
2024/01/19 04:21:30;;;;;;;30.57;22.80;;;-0.90;99.90;;;;;;5115989;28;20416;-43
2024/01/19 04:23:56;;;;;;;34.67;23.97;;;-0.90;99.90;;;;;;5098486;28;20461;-42
2024/01/19 04:26:22;;;;;;;28.80;19.63;;;-1.00;99.90;;;;;;5115062;28;20282;-45
2024/01/19 04:28:47;;;;;;;26.70;18.87;;;-1.00;99.90;;;;;;5116063;28;20500;-42
2024/01/19 04:31:13;;;;;;;38.17;24.00;;;-1.00;99.90;;;;;;5081378;28;20292;-42
2024/01/19 04:33:38;;;;;;;35.67;23.20;;;-1.00;99.90;;;;;;5117413;28;20236;-42
2024/01/19 04:36:04;;;;;;;28.47;21.90;;;-1.00;99.90;;;;;;5116990;28;20554;-41
2024/01/19 04:38:30;;;;;;;32.70;24.67;;;-0.90;99.90;;;;;;5115270;28;20184;-42
2024/01/19 04:40:55;;;;;;;32.93;24.00;;;-0.90;99.90;;;;;;5115893;28;20184;-41
2024/01/19 04:43:21;;;;;;;28.13;22.10;;;-0.90;99.90;;;;;;5116085;28;20264;-43
2024/01/19 04:45:46;;;;;;;28.80;22.23;;;-0.90;99.90;;;;;;5117478;28;20180;-39
2024/01/19 04:48:12;;;;;;;28.30;22.00;;;-0.80;99.90;;;;;;5116046;28;20176;-43
2024/01/19 04:50:38;;;;;;;26.07;21.43;;;-0.80;99.90;;;;;;5116789;28;20179;-43
2024/01/19 04:53:04;;;;;;;32.17;21.20;;;-0.80;99.90;;;;;;5115962;28;20515;-41
2024/01/19 04:55:30;;;;;;;28.10;20.43;;;-0.80;99.90;;;;;;5096795;28;20429;-44
2024/01/19 04:57:55;;;;;;;32.00;22.47;;;-0.80;99.90;;;;;;5113404;28;20469;-42
2024/01/19 05:00:22;;;;;;;31.30;21.30;;;-0.80;99.90;;;;;;5113610;28;20198;-40
2024/01/19 05:02:48;;;;;;;30.63;20.93;;;-0.70;99.90;;;;;;5112909;28;20546;-42
2024/01/19 05:05:14;;;;;;;28.70;21.07;;;-0.70;99.90;;;;;;5094125;28;20417;-43
2024/01/19 05:07:39;;;;;;;34.60;22.53;;;-0.70;99.90;;;;;;5111905;28;20487;-41
2024/01/19 05:10:05;;;;;;;31.80;21.13;;;-0.70;99.90;;;;;;5110533;28;20448;-44
2024/01/19 05:12:32;;;;;;;28.27;21.53;;;-0.70;99.90;;;;;;5111709;28;20496;-43
2024/01/19 05:14:57;;;;;;;29.80;22.00;;;-0.70;99.90;;;;;;5112028;28;20472;-42
2024/01/19 05:17:23;;;;;;;29.87;21.70;;;-0.70;99.90;;;;;;5112550;28;20433;-43
2024/01/19 05:19:48;;;;;;;30.10;21.10;;;-0.70;99.90;;;;;;5113685;28;20172;-41
2024/01/19 05:22:14;;;;;;;29.10;21.97;;;-0.70;99.90;;;;;;5113936;28;20171;-45
2024/01/19 05:24:41;;;;;;;29.53;20.93;;;-0.70;99.90;;;;;;5115433;28;20210;-43
2024/01/19 05:27:07;;;;;;;29.43;20.30;;;-0.70;99.90;;;;;;5115686;28;20183;-42
2024/01/19 05:29:32;;;;;;;30.53;21.70;;;-0.70;99.90;;;;;;5116197;28;20500;-44
2024/01/19 05:31:58;;;;;;;27.37;20.87;;;-0.70;99.90;;;;;;5114340;28;20489;-43
2024/01/19 05:34:23;;;;;;;26.20;21.63;;;-0.70;99.90;;;;;;5114348;28;20203;-43
2024/01/19 05:36:49;;;;;;;29.90;21.33;;;-0.80;99.90;;;;;;5114262;28;20214;-47
2024/01/19 05:39:14;;;;;;;32.13;22.40;;;-0.80;99.90;;;;;;5113637;28;20175;-43
2024/01/19 05:41:40;;;;;;;32.37;20.07;;;-0.70;99.90;;;;;;5113966;28;20186;-44
2024/01/19 05:44:05;;;;;;;29.87;21.10;;;-0.70;99.90;;;;;;5113969;28;20199;-42
2024/01/19 05:46:31;;;;;;;30.40;21.50;;;-0.70;99.90;;;;;;5112561;28;20588;-42
2024/01/19 05:48:57;;;;;;;26.50;19.33;;;-0.70;99.90;;;;;;5114754;28;20186;-54
2024/01/19 05:51:22;;;;;;;35.17;21.87;;;-0.70;99.90;;;;;;5115353;28;20186;-43
2024/01/19 05:53:48;;;;;;;28.47;19.73;;;-0.70;99.90;;;;;;5114803;28;20202;-43
2024/01/19 05:56:14;;;;;;;27.80;19.87;;;-0.70;99.90;;;;;;5113494;28;20594;-41
2024/01/19 05:58:39;;;;;;;28.57;20.30;;;-0.70;99.90;;;;;;5112865;28;20425;-42
2024/01/19 06:01:05;;;;;;;29.40;20.67;;;-0.70;99.90;;;;;;5114123;28;20175;-44
2024/01/19 06:03:34;;;;;;;26.00;19.57;;;-0.70;99.90;;;;;;5113583;28;20480;-42
2024/01/19 06:06:01;;;;;;;26.40;19.43;;;-0.70;99.90;;;;;;5113990;28;20460;-43
2024/01/19 06:08:30;;;;;;;29.13;20.60;;;-0.70;99.90;;;;;;5114003;28;20432;-43
2024/01/19 06:10:56;;;;;;;29.07;20.60;;;-0.70;99.90;;;;;;5113708;28;20762;-42
2024/01/19 06:13:22;;;;;;;27.20;18.20;;;-0.60;99.90;;;;;;5114279;28;20430;-43
2024/01/19 06:15:48;;;;;;;27.23;20.30;;;-0.70;99.90;;;;;;5079783;28;20596;-42
2024/01/19 06:18:13;;;;;;;26.13;19.40;;;-0.70;99.90;;;;;;5113748;28;20192;-42
2024/01/19 06:20:41;;;;;;;25.40;19.67;;;-0.70;99.90;;;;;;5113908;28;20219;-47
2024/01/19 06:23:11;;;;;;;26.03;19.90;;;-0.70;99.90;;;;;;5117211;28;20208;-42
2024/01/19 06:25:37;;;;;;;24.40;18.57;;;-0.70;99.90;;;;;;5118542;28;20425;-43
2024/01/19 06:28:04;;;;;;;25.90;18.57;;;-0.70;98.70;;;;;;5118241;28;20436;-41
2024/01/19 06:30:29;;;;;;;24.77;19.30;;;-0.80;48.40;;;;;;5118500;28;20481;-41
2024/01/19 06:32:55;;;;;;;24.73;18.80;;;-0.90;63.90;;;;;;5117293;28;20559;-41
2024/01/19 06:35:21;;;;;;;29.53;19.70;;;-1.00;39.10;;;;;;5098500;28;20557;-43
2024/01/19 06:37:47;;;;;;;24.67;18.73;;;-1.00;35.60;;;;;;5117547;28;20440;-43
2024/01/19 06:40:14;;;;;;;24.53;18.30;;;-1.10;58.50;;;;;;5116862;28;20426;-44
2024/01/19 06:42:43;;;;;;;25.80;18.60;;;-1.10;74.90;;;;;;5116807;28;20582;-43
2024/01/19 06:45:09;;;;;;;29.37;19.20;;;-1.10;82.30;;;;;;5116005;28;20425;-43
2024/01/19 06:47:35;;;;;;;25.03;18.97;;;-1.20;93.30;;;;;;5113232;28;20422;-43
2024/01/19 06:50:01;;;;;;;27.03;18.33;;;-1.20;96.90;;;;;;5095413;28;20437;-41
2024/01/19 06:52:26;;;;;;;30.97;18.43;;;-1.20;99.90;;;;;;5079912;28;20171;-43
2024/01/19 06:54:52;;;;;;;26.13;17.90;;;-1.20;99.90;;;;;;5115649;28;20406;-43
2024/01/19 06:57:18;;;;;;;26.60;19.13;;;-1.20;99.90;;;;;;5115859;28;20172;-44
2024/01/19 06:59:43;;;;;;;28.13;18.83;;;-1.20;99.90;;;;;;5115308;28;20263;-42
2024/01/19 07:02:09;;;;;;;25.27;17.77;;;-1.10;99.90;;;;;;5113629;28;20260;-41
2024/01/19 07:04:35;;;;;;;26.40;19.10;;;-1.10;99.90;;;;;;5099083;28;20214;-41
2024/01/19 07:07:00;;;;;;;27.10;19.00;;;-1.10;99.90;;;;;;5117518;28;20509;-42
2024/01/19 07:09:27;;;;;;;27.57;18.03;;;-1.10;99.90;;;;;;5117173;28;20193;-42
2024/01/19 07:11:53;;;;;;;26.30;18.00;;;-1.10;99.90;;;;;;5118279;28;20240;-41
2024/01/19 07:14:19;;;;;;;21.37;16.90;;;-1.10;99.90;;;;;;5117426;28;20536;-44
2024/01/19 07:16:44;;;;;;;24.60;16.83;;;-1.10;99.90;;;;;;5116646;28;20544;-44
2024/01/19 07:19:10;;;;;;;26.40;18.67;;;-1.10;99.90;;;;;;5116193;28;20609;-41
2024/01/19 07:21:43;;;;;;;25.37;18.53;;;-1.10;99.90;;;;;;5117393;28;20221;-50
2024/01/19 07:24:09;;;;;;;25.63;17.60;;;-1.00;99.90;;;;;;5117249;28;20445;-43
2024/01/19 07:26:35;;;;;;;25.00;19.00;;;-1.00;99.90;;;;;;5119100;28;20422;-41
2024/01/19 07:29:04;;;;;;;25.10;18.03;;;-1.00;99.90;;;;;;5117366;28;20733;-43
2024/01/19 07:31:33;;;;;;;26.57;17.37;;;-1.00;99.90;;;;;;5116877;28;20468;-45
2024/01/19 07:34:00;;;;;;;24.63;19.23;;;-1.00;99.90;;;;;;5118240;28;20653;-47
2024/01/19 07:36:26;;;;;;;30.57;21.30;;;-1.00;99.90;;;;;;5117018;28;20526;-42
2024/01/19 07:38:52;;;;;;;30.80;22.03;;;-0.90;88.80;;;;;;5118856;28;20436;-43
2024/01/19 07:41:17;;;;;;;32.63;24.70;;;-0.90;78.00;;;;;;5118802;28;20528;-44
2024/01/19 07:43:43;;;;;;;29.13;21.60;;;-0.90;86.30;;;;;;5118268;28;20203;-41
2024/01/19 07:46:11;;;;;;;30.53;21.77;;;-0.80;64.70;;;;;;5116227;28;20188;-43
2024/01/19 07:48:36;;;;;;;37.07;25.20;;;-0.80;32.80;;;;;;5114618;28;20175;-44
2024/01/19 07:51:03;;;;;;;35.00;24.67;;;-0.80;25.70;;;;;;5098651;28;20418;-44
2024/01/19 07:53:28;;;;;;;28.43;20.93;;;-0.80;5.40;;;;;;5116936;28;20458;-43
2024/01/19 07:55:54;;;;;;;25.97;19.63;;;-0.80;1.00;;;;;;5116044;28;20851;-42
2024/01/19 07:58:19;;;;;;;31.27;23.57;;;-0.80;1.00;;;;;;5115429;28;20172;-41
2024/01/19 08:00:45;;;;;;;23.93;19.67;;;-0.80;1.00;;;;;;5115370;28;20207;-42
2024/01/19 08:03:10;;;;;;;27.97;19.50;;;-0.70;1.00;;;;;;5114358;28;20203;-42
2024/01/19 08:05:36;;;;;;;23.63;18.17;;;-0.60;1.00;;;;;;5113333;28;20263;-43
2024/01/19 08:08:02;;;;;;;27.20;21.20;;;-0.40;1.00;;;;;;5111165;28;20272;-41
2024/01/19 08:10:31;;;;;;;27.57;19.07;;;-0.30;1.00;;;;;;5113944;28;20152;-44
2024/01/19 08:12:58;;;;;;;23.43;18.00;;;-0.20;1.00;;;;;;5113234;28;20349;-42
2024/01/19 08:15:23;;;;;;;23.27;17.87;;;-0.10;1.00;;;;;;5114887;28;20408;-45
2024/01/19 08:17:49;;;;;;;26.00;19.07;;;0.00;1.00;;;;;;5113936;28;20421;-41
2024/01/19 08:20:14;;;;;;;28.57;19.23;;;0.10;1.00;;;;;;5114415;28;20538;-42
2024/01/19 08:22:40;;;;;;;27.50;20.20;;;0.20;1.00;;;;;;5115701;28;20187;-43
2024/01/19 08:25:05;;;;;;;30.83;22.57;;;0.50;1.00;;;;;;5116508;28;20183;-43
2024/01/19 08:27:31;;;;;;;27.83;19.60;;;0.60;1.00;;;;;;5115178;28;20171;-41
2024/01/19 08:29:56;;;;;;;24.70;19.57;;;0.70;99.90;;;;;;5115890;28;20180;-44
2024/01/19 08:32:23;;;;;;;25.00;19.23;;;1.00;99.90;;;;;;5114410;28;20601;-43
2024/01/19 08:34:49;;;;;;;25.00;18.50;;;1.30;99.90;;;;;;5115258;28;20262;-44
2024/01/19 08:37:15;;;;;;;19.73;16.17;;;1.40;1.00;;;;;;5115101;28;20604;-41
2024/01/19 08:39:40;;;;;;;21.10;16.40;;;1.30;1.00;;;;;;5097861;28;20180;-44
2024/01/19 08:42:06;;;;;;;22.27;16.87;;;1.40;1.00;;;;;;5094636;28;20258;-43
2024/01/19 08:44:32;;;;;;;28.80;17.27;;;1.50;1.00;;;;;;5112090;28;20280;-42
2024/01/19 08:46:57;;;;;;;21.97;16.50;;;1.70;1.00;;;;;;5111561;28;20270;-42
2024/01/19 08:49:24;;;;;;;23.50;17.43;;;1.70;99.90;;;;;;5113678;28;20414;-42
2024/01/19 08:51:51;;;;;;;24.77;17.17;;;1.70;99.90;;;;;;5113272;28;20225;-40
2024/01/19 08:54:20;;;;;;;22.90;18.27;;;1.60;53.10;;;;;;5115035;28;20445;-42
2024/01/19 08:56:46;;;;;;;20.27;17.23;;;1.60;1.00;;;;;;5113763;28;20903;-43
2024/01/19 08:59:17;;;;;;;24.73;17.03;;;1.50;99.90;;;;;;5111906;28;20481;-42
2024/01/19 09:01:44;;;;;;;22.03;15.93;;;1.70;99.90;;;;;;5095766;28;20164;-41
2024/01/19 09:04:10;;;;;;;25.43;17.10;;;1.90;99.90;;;;;;5111726;28;20573;-41
2024/01/19 09:06:38;;;;;;;23.80;18.00;;;2.30;74.20;;;;;;5113794;28;20544;-43
2024/01/19 09:09:04;;;;;;;19.13;16.27;;;2.60;12.30;;;;;;5113992;28;20641;-50
2024/01/19 09:11:34;;;;;;;22.87;18.27;;;3.10;20.20;;;;;;5115212;28;20428;-41
2024/01/19 09:13:59;;;;;;;22.13;17.53;;;3.60;99.90;;;;;;5115431;28;20176;-42
2024/01/19 09:16:25;;;;;;;22.83;17.03;;;4.00;42.10;;;;;;5113833;28;20788;-44
2024/01/19 09:18:50;;;;;;;25.87;18.83;;;4.40;13.60;;;;;;5113623;28;20219;-42
2024/01/19 09:21:17;;;;;;;22.23;16.90;;;4.80;1.00;;;;;;5115138;28;20195;-45
2024/01/19 09:23:43;;;;;;;20.70;16.00;;;5.20;99.90;;;;;;5115093;28;20264;-42
2024/01/19 09:26:20;;;;;;;19.50;16.00;;;5.70;1.00;;;;;;5113797;28;20765;-44
2024/01/19 09:28:45;;;;;;;21.07;17.13;;;6.10;1.00;;;;;;5097527;28;20267;-43
2024/01/19 09:31:11;;;;;;;20.73;15.33;;;6.40;99.90;;;;;;5114378;28;20500;-43
2024/01/19 09:33:37;;;;;;;16.00;13.97;;;6.50;19.60;;;;;;5113980;28;20327;-43
2024/01/19 09:36:02;;;;;;;18.30;13.23;;;6.70;1.00;;;;;;5113414;28;20252;-44
2024/01/19 09:38:28;;;;;;;16.20;14.03;;;7.00;25.80;;;;;;5113223;28;20211;-44
2024/01/19 09:41:01;;;;;;;16.53;14.50;;;7.30;1.00;;;;;;5113606;28;20458;-44
2024/01/19 09:43:26;;;;;;;15.87;13.17;;;7.60;1.00;;;;;;5096171;28;20246;-43
2024/01/19 09:45:54;;;;;;;14.37;12.40;;;7.70;1.00;;;;;;5113888;28;20457;-43
2024/01/19 09:48:24;;;;;;;14.70;13.07;;;7.80;1.00;;;;;;5114592;28;20184;-44
2024/01/19 09:50:53;;;;;;;16.70;13.00;;;8.00;1.00;;;;;;5114341;28;20452;-40
2024/01/19 09:53:27;;;;;;;14.93;12.73;;;7.50;1.00;;;;;;5115355;28;20804;-43
2024/01/19 09:55:52;;;;;;;14.20;12.03;;;7.20;1.00;;;;;;5114941;28;20574;-44
2024/01/19 09:58:21;;;;;;;12.70;11.30;;;7.30;1.00;;;;;;5119386;28;20893;-40
2024/01/19 10:00:51;;;;;;;13.77;11.90;;;7.20;1.00;;;;;;5117970;28;20198;-42
2024/01/19 10:03:17;;;;;;;11.40;10.23;;;7.40;1.00;;;;;;5117383;28;20472;-42
2024/01/19 10:05:43;;;;;;;14.47;11.90;;;7.90;1.00;;;;;;5118916;28;20413;-45
2024/01/19 10:08:12;;;;;;;13.70;12.33;;;8.30;1.00;;;;;;5119957;28;20447;-44
2024/01/19 10:10:40;;;;;;;11.77;10.57;;;8.70;1.00;;;;;;5119218;28;20730;-45
2024/01/19 10:13:06;;;;;;;8.90;7.37;;;8.60;1.00;;;;;;5119125;28;20421;-41
2024/01/19 10:15:32;;;;;;;8.43;7.53;;;7.80;1.00;;;;;;5118867;28;20779;-43
2024/01/19 10:17:59;;;;;;;13.73;9.30;;;7.10;1.00;;;;;;5117832;28;20557;-42
2024/01/19 10:20:25;;;;;;;11.97;9.60;;;6.40;1.00;;;;;;5117339;28;20425;-41
2024/01/19 10:22:51;;;;;;;9.53;7.83;;;5.50;1.00;;;;;;5116645;28;20492;-43
2024/01/19 10:25:16;;;;;;;12.00;9.10;;;5.50;1.00;;;;;;5099192;28;20175;-41
2024/01/19 10:27:46;;;;;;;8.83;7.93;;;5.10;1.00;;;;;;5099894;28;20199;-41
2024/01/19 10:30:23;;;;;;;11.17;7.27;;;4.80;1.00;;;;;;5114938;28;20176;-41
2024/01/19 10:32:50;;;;;;;11.87;8.70;;;5.50;1.00;;;;;;5114859;28;20464;-42
2024/01/19 10:35:18;;;;;;;11.40;10.20;;;5.30;1.00;;;;;;5114788;28;20424;-42
2024/01/19 10:37:44;;;;;;;12.50;8.97;;;5.70;1.00;;;;;;5116768;28;20440;-41
2024/01/19 10:40:21;;;;;;;10.77;9.50;;;5.90;1.00;;;;;;5117876;28;20724;-41
2024/01/19 10:42:49;;;;;;;15.77;11.07;;;5.90;1.00;;;;;;5117571;28;20206;-45
2024/01/19 10:45:25;;;;;;;23.17;13.33;;;5.90;1.00;;;;;;5117998;28;20888;-41
2024/01/19 10:47:56;;;;;;;13.40;11.60;;;5.80;1.00;;;;;;5116207;28;20764;-41
2024/01/19 10:50:26;;;;;;;15.33;11.80;;;6.00;1.00;;;;;;5118447;28;20422;-42
2024/01/19 10:52:53;;;;;;;12.93;11.50;;;6.70;1.00;;;;;;5101006;28;20425;-41
2024/01/19 10:55:23;;;;;;;17.30;12.43;;;7.20;1.00;;;;;;5118348;28;20668;-40
2024/01/19 10:57:55;;;;;;;10.83;9.20;;;8.10;1.00;;;;;;5119178;28;20693;-44
2024/01/19 11:00:22;;;;;;;11.40;10.20;;;8.20;1.00;;;;;;5118236;28;20424;-41
2024/01/19 11:02:51;;;;;;;14.97;10.10;;;7.90;1.00;;;;;;5117852;28;20843;-41
2024/01/19 11:05:18;;;;;;;18.37;13.67;;;8.50;1.00;;;;;;5117815;28;20425;-41
2024/01/19 11:07:44;;;;;;;13.07;10.17;;;9.30;1.00;;;;;;5098650;28;20402;-41
2024/01/19 11:10:09;;;;;;;8.67;7.77;;;10.00;1.00;;;;;;5116428;28;20416;-44
2024/01/19 11:12:37;;;;;;;9.07;8.17;;;10.10;1.00;;;;;;5115757;28;20588;-41
2024/01/19 11:15:08;;;;;;;9.97;8.97;;;9.70;1.00;;;;;;5080331;28;20176;-41
2024/01/19 11:17:34;;;;;;;9.50;8.50;;;10.60;1.00;;;;;;5098414;28;20422;-42
2024/01/19 11:19:59;;;;;;;9.60;8.60;;;11.10;1.00;;;;;;5116437;28;20485;-42
2024/01/19 11:22:25;;;;;;;11.20;9.13;;;10.90;1.00;;;;;;5116940;28;20406;-41
2024/01/19 11:24:52;;;;;;;9.53;8.53;;;10.00;1.00;;;;;;5096318;28;20242;-42
2024/01/19 11:27:29;;;;;;;8.47;6.77;;;10.50;1.00;;;;;;5097933;28;20839;-40
2024/01/19 11:30:07;;;;;;;6.67;6.00;;;9.80;1.00;;;;;;5098264;28;20509;-41
2024/01/19 11:32:33;;;;;;;8.50;6.07;;;9.90;1.00;;;;;;5098278;28;20883;-42
2024/01/19 11:34:58;;;;;;;9.10;8.20;;;10.70;1.00;;;;;;5115729;28;20441;-42
2024/01/19 11:37:44;;;;;;;6.80;6.20;;;12.20;1.00;;;;;;5115839;28;20264;-42
2024/01/19 11:40:25;;;;;;;7.30;6.60;;;12.40;1.00;;;;;;5115199;28;20473;-42
2024/01/19 11:42:51;;;;;;;8.70;7.80;;;13.10;1.00;;;;;;5116117;28;20456;-42
2024/01/19 11:45:42;;;;;;;8.97;8.07;;;12.80;1.00;;;;;;5115851;28;20468;-43
2024/01/19 11:48:11;;;;;;;8.20;7.30;;;12.10;1.00;;;;;;5115211;28;20182;-41
2024/01/19 11:50:47;;;;;;;10.60;8.17;;;11.20;1.00;;;;;;5096915;28;20939;-42
2024/01/19 11:53:13;;;;;;;7.80;6.10;;;11.20;1.00;;;;;;5116063;28;20413;-45
2024/01/19 11:55:46;;;;;;;6.70;5.87;;;11.80;1.00;;;;;;5116603;28;20807;-43
2024/01/19 11:58:35;;;;;;;3.63;3.10;;;12.70;1.00;;;;;;5116842;28;20457;-45
2024/01/19 12:01:02;;;;;;;3.90;3.23;;;15.40;1.00;;;;;;5116451;28;20425;-50
2024/01/19 12:03:28;;;;;;;4.60;3.73;;;18.20;6.40;;;;;;5081716;28;20468;-45
2024/01/19 12:05:57;;;;;;;7.73;4.80;;;20.50;1.00;;;;;;5115940;28;20735;-49
2024/01/19 12:08:22;;;;;;;7.47;6.77;;;22.40;1.00;;;;;;5098118;28;20591;-42
2024/01/19 12:11:06;;;;;;;6.50;5.90;;;22.20;1.00;;;;;;5116160;27;20421;-41
2024/01/19 12:13:34;;;;;;;13.70;12.50;;;19.00;1.00;;;;;;5137959;27;20171;-41
2024/01/19 12:16:01;;;;;;;22.57;20.60;;;15.90;1.00;;;;;;5138617;27;20423;-42
2024/01/19 12:18:27;;;;;;;14.87;13.57;;;14.10;1.00;;;;;;5136566;27;20507;-41
2024/01/19 12:20:56;;;;;;;8.00;7.30;;;13.30;1.00;;;;;;5136416;27;20478;-43
2024/01/19 12:23:23;;;;;;;6.30;5.80;;;14.50;1.00;;;;;;5136999;27;20465;-51
2024/01/19 12:25:54;;;;;;;6.30;5.70;;;16.50;1.00;;;;;;5136327;27;20477;-44
2024/01/19 12:28:20;;;;;;;6.47;5.90;;;17.80;1.00;;;;;;5136849;27;20416;-44
2024/01/19 12:30:46;;;;;;;7.63;6.77;;;17.60;1.00;;;;;;5136268;27;20761;-41
2024/01/19 12:33:16;;;;;;;7.23;6.63;;;18.20;1.00;;;;;;5119013;27;20231;-42
2024/01/19 12:35:43;;;;;;;7.10;6.40;;;19.10;1.00;;;;;;5135193;27;20182;-43